createdAt,value
2018-12-26T00:01:00.831Z,76.50
2018-12-26T00:03:29.270Z,76.40
2018-12-26T00:05:57.732Z,76.00
2018-12-26T00:08:26.168Z,76.00
2018-12-26T00:10:54.621Z,75.40
2018-12-26T00:13:23.093Z,75.20
2018-12-26T00:15:51.503Z,75.50
2018-12-26T00:18:20.099Z,75.70
2018-12-26T00:20:48.694Z,76.10
2018-12-26T00:23:17.143Z,76.50
2018-12-26T00:25:45.586Z,76.40
2018-12-26T00:28:14.018Z,76.50
2018-12-26T00:30:42.473Z,76.60
2018-12-26T00:33:10.889Z,76.40
2018-12-26T00:35:39.352Z,75.80
2018-12-26T00:38:07.783Z,75.30
2018-12-26T00:40:36.235Z,75.70
2018-12-26T00:43:04.663Z,75.90
2018-12-26T00:45:33.178Z,75.10
2018-12-26T00:48:01.675Z,75.50
2018-12-26T00:50:30.146Z,76.40
2018-12-26T00:52:58.577Z,76.90
2018-12-26T00:55:27.054Z,77.10
2018-12-26T00:57:55.516Z,76.80
2018-12-26T01:00:23.986Z,76.70
2018-12-26T01:02:52.414Z,76.60
2018-12-26T01:05:20.886Z,76.40
2018-12-26T01:07:49.293Z,76.60
2018-12-26T01:10:17.894Z,76.80
2018-12-26T01:12:46.339Z,76.80
2018-12-26T01:15:14.760Z,76.60
2018-12-26T01:17:43.213Z,76.60
2018-12-26T01:20:11.638Z,76.50
2018-12-26T01:22:40.082Z,76.70
2018-12-26T01:25:08.517Z,76.80
2018-12-26T01:27:36.970Z,76.50
2018-12-26T01:30:05.750Z,76.80
2018-12-26T01:32:34.201Z,76.90
2018-12-26T01:35:02.614Z,76.90
2018-12-26T01:37:31.050Z,77.10
2018-12-26T01:39:59.543Z,77.30
2018-12-26T01:42:28.012Z,77.40
2018-12-26T01:44:56.418Z,77.60
2018-12-26T01:47:24.869Z,77.50
2018-12-26T01:49:53.369Z,77.20
2018-12-26T01:52:21.869Z,76.60
2018-12-26T01:54:50.332Z,76.40
2018-12-26T01:57:18.760Z,76.40
2018-12-26T01:59:48.891Z,75.90
2018-12-26T02:02:17.418Z,75.50
2018-12-26T02:04:45.869Z,75.00
2018-12-26T02:07:14.294Z,74.70
2018-12-26T02:09:42.737Z,74.50
2018-12-26T02:12:11.165Z,74.20
2018-12-26T02:14:39.602Z,74.20
2018-12-26T02:17:08.040Z,74.30
2018-12-26T02:19:36.475Z,74.20
2018-12-26T02:22:05.038Z,74.20
2018-12-26T02:24:33.559Z,73.50
2018-12-26T02:27:01.990Z,73.20
2018-12-26T02:29:30.441Z,73.40
2018-12-26T02:31:58.856Z,73.00
2018-12-26T02:34:27.342Z,72.60
2018-12-26T02:36:55.783Z,72.70
2018-12-26T02:39:24.238Z,72.70
2018-12-26T02:41:52.660Z,72.40
2018-12-26T02:44:21.122Z,72.10
2018-12-26T02:46:49.539Z,72.40
2018-12-26T02:49:17.969Z,72.50
2018-12-26T02:51:46.434Z,72.50
2018-12-26T02:54:14.863Z,72.20
2018-12-26T02:56:47.730Z,72.60
2018-12-26T02:59:13.763Z,73.00
2018-12-26T03:01:42.289Z,73.10
2018-12-26T03:04:10.723Z,74.00
2018-12-26T03:06:39.247Z,75.00
2018-12-26T03:09:07.912Z,75.10
2018-12-26T03:11:37.893Z,75.00
2018-12-26T03:14:06.382Z,75.00
2018-12-26T03:16:34.877Z,75.80
2018-12-26T03:19:03.326Z,76.40
2018-12-26T03:21:31.937Z,76.90
2018-12-26T03:24:00.365Z,77.30
2018-12-26T03:26:28.800Z,77.70
2018-12-26T03:28:57.249Z,78.10
2018-12-26T03:31:25.678Z,78.20
2018-12-26T03:33:54.115Z,78.30
2018-12-26T03:36:22.612Z,78.70
2018-12-26T03:38:51.049Z,79.20
2018-12-26T03:41:19.719Z,79.80
2018-12-26T03:43:48.409Z,80.20
2018-12-26T03:46:16.830Z,80.90
2018-12-26T03:48:45.270Z,81.40
2018-12-26T03:51:13.701Z,82.00
2018-12-26T03:53:42.222Z,82.40
2018-12-26T03:56:10.655Z,82.80
2018-12-26T03:58:39.104Z,83.20
2018-12-26T04:01:07.669Z,83.60
2018-12-26T04:03:36.114Z,84.20
2018-12-26T04:06:04.617Z,84.60
2018-12-26T04:08:33.125Z,84.90
2018-12-26T04:11:01.898Z,85.00
2018-12-26T04:13:30.421Z,85.00
2018-12-26T04:15:59.090Z,85.10
2018-12-26T04:18:27.607Z,85.20
2018-12-26T04:20:56.296Z,85.30
2018-12-26T04:23:24.822Z,85.40
2018-12-26T04:25:53.291Z,85.10
2018-12-26T04:28:21.706Z,85.20
2018-12-26T04:30:50.164Z,85.10
2018-12-26T04:33:18.593Z,85.10
2018-12-26T04:35:47.027Z,85.30
2018-12-26T04:38:15.477Z,85.20
2018-12-26T04:40:43.906Z,85.00
2018-12-26T04:43:15.004Z,85.00
2018-12-26T04:45:43.450Z,84.90
2018-12-26T04:48:11.866Z,84.80
2018-12-26T04:50:40.328Z,84.80
2018-12-26T04:53:08.743Z,84.50
2018-12-26T04:55:37.211Z,84.30
2018-12-26T04:58:05.640Z,84.00
2018-12-26T05:00:34.150Z,83.70
2018-12-26T05:03:02.585Z,83.60
2018-12-26T05:05:31.159Z,83.00
2018-12-26T05:07:59.583Z,82.60
2018-12-26T05:10:29.570Z,82.50
2018-12-26T05:12:58.073Z,81.80
2018-12-26T05:15:26.513Z,81.60
2018-12-26T05:17:55.108Z,81.30
2018-12-26T05:20:23.534Z,80.80
2018-12-26T05:22:53.622Z,80.50
2018-12-26T05:25:22.050Z,80.40
2018-12-26T05:27:50.515Z,80.30
2018-12-26T05:30:18.936Z,79.70
2018-12-26T05:32:47.381Z,79.60
2018-12-26T05:35:15.815Z,80.10
2018-12-26T05:37:44.585Z,80.90
2018-12-26T05:40:13.091Z,81.20
2018-12-26T05:42:41.592Z,81.10
2018-12-26T05:45:10.013Z,80.90
2018-12-26T05:47:38.465Z,80.70
2018-12-26T05:50:06.898Z,80.50
2018-12-26T05:52:35.333Z,80.70
2018-12-26T05:55:04.727Z,80.50
2018-12-26T05:57:33.183Z,79.80
2018-12-26T06:00:01.610Z,79.90
2018-12-26T06:02:30.023Z,80.00
2018-12-26T06:04:58.462Z,80.10
2018-12-26T06:07:26.907Z,79.70
2018-12-26T06:09:55.338Z,79.70
2018-12-26T06:12:23.758Z,80.30
2018-12-26T06:14:52.197Z,79.80
2018-12-26T06:17:20.630Z,79.50
2018-12-26T06:19:49.078Z,79.30
2018-12-26T06:22:17.518Z,79.90
2018-12-26T06:24:45.989Z,80.50
2018-12-26T06:27:14.411Z,80.30
2018-12-26T06:29:42.865Z,79.80
2018-12-26T06:32:11.291Z,79.70
2018-12-26T06:34:39.742Z,79.60
2018-12-26T06:37:08.170Z,79.10
2018-12-26T06:39:36.619Z,78.50
2018-12-26T06:42:05.042Z,77.60
2018-12-26T06:44:33.495Z,77.60
2018-12-26T06:47:01.953Z,77.20
2018-12-26T06:49:30.396Z,77.40
2018-12-26T06:51:58.887Z,77.10
2018-12-26T06:54:27.354Z,77.30
2018-12-26T06:56:55.858Z,77.00
2018-12-26T06:59:24.295Z,75.70
2018-12-26T07:01:52.795Z,76.80
2018-12-26T07:04:21.235Z,77.40
2018-12-26T07:06:49.684Z,76.90
2018-12-26T07:09:18.104Z,76.50
2018-12-26T07:11:46.558Z,76.60
2018-12-26T07:14:14.981Z,76.50
2018-12-26T07:16:43.432Z,76.70
2018-12-26T07:19:11.931Z,76.60
2018-12-26T07:21:40.410Z,76.70
2018-12-26T07:24:08.837Z,76.80
2018-12-26T07:26:38.856Z,77.30
2018-12-26T07:29:07.264Z,77.60
2018-12-26T07:31:35.694Z,77.90
2018-12-26T07:34:04.133Z,78.40
2018-12-26T07:36:32.593Z,78.40
2018-12-26T07:39:01.070Z,77.90
2018-12-26T07:41:29.546Z,78.10
2018-12-26T07:43:57.983Z,77.90
2018-12-26T07:46:26.400Z,78.20
2018-12-26T07:48:54.859Z,77.50
2018-12-26T07:51:23.314Z,77.40
2018-12-26T07:53:51.771Z,77.70
2018-12-26T07:56:20.206Z,77.30
2018-12-26T07:58:48.646Z,77.30
2018-12-26T08:01:17.084Z,77.10
2018-12-26T08:03:45.549Z,77.20
2018-12-26T08:06:13.969Z,76.90
2018-12-26T08:08:42.430Z,76.30
2018-12-26T08:11:10.903Z,76.70
2018-12-26T08:13:39.369Z,77.00
2018-12-26T08:16:09.847Z,76.90
2018-12-26T08:18:37.970Z,76.70
2018-12-26T08:21:06.405Z,76.10
2018-12-26T08:23:34.872Z,75.20
2018-12-26T08:26:03.292Z,75.70
2018-12-26T08:28:31.747Z,74.80
2018-12-26T08:31:00.188Z,74.90
2018-12-26T08:33:28.643Z,75.10
2018-12-26T08:35:57.073Z,76.00
2018-12-26T08:38:25.539Z,75.80
2018-12-26T08:40:54.086Z,75.70
2018-12-26T08:43:24.179Z,77.10
2018-12-26T08:46:04.004Z,77.80
2018-12-26T08:48:34.056Z,77.80
2018-12-26T08:51:06.975Z,76.80
2018-12-26T08:53:35.378Z,77.10
2018-12-26T08:56:05.753Z,77.70
2018-12-26T08:58:35.846Z,77.80
2018-12-26T09:01:07.105Z,78.00
2018-12-26T09:03:40.130Z,77.60
2018-12-26T09:06:07.320Z,77.40
2018-12-26T09:08:37.457Z,77.60
2018-12-26T09:11:19.073Z,77.30
2018-12-26T09:13:53.068Z,78.00
2018-12-26T09:16:24.275Z,78.00
2018-12-26T09:18:55.052Z,77.60
2018-12-26T09:21:26.575Z,75.90
2018-12-26T09:23:58.537Z,74.60
2018-12-26T09:26:31.265Z,74.50
2018-12-26T09:29:02.770Z,73.80
2018-12-26T09:31:36.011Z,72.80
2018-12-26T09:34:06.002Z,73.10
2018-12-26T09:36:34.475Z,73.20
2018-12-26T09:39:04.551Z,73.20
2018-12-26T09:41:35.947Z,72.90
2018-12-26T09:44:23.339Z,72.70
2018-12-26T09:46:55.378Z,72.90
2018-12-26T09:49:25.080Z,73.50
2018-12-26T09:52:03.902Z,74.20
2018-12-26T09:54:42.655Z,74.90
2018-12-26T09:57:21.675Z,74.60
2018-12-26T09:59:57.996Z,74.90
2018-12-26T10:02:26.442Z,73.80
2018-12-26T10:04:54.926Z,74.00
2018-12-26T10:07:23.390Z,73.70
2018-12-26T10:09:51.860Z,72.30
2018-12-26T10:12:20.273Z,70.70
2018-12-26T10:14:48.723Z,69.00
2018-12-26T10:17:17.161Z,69.30
2018-12-26T10:19:45.603Z,68.40
2018-12-26T10:22:14.031Z,67.10
2018-12-26T10:24:42.487Z,65.20
2018-12-26T10:27:11.038Z,62.20
2018-12-26T10:29:39.491Z,62.30
2018-12-26T10:32:07.905Z,64.70
2018-12-26T10:34:36.363Z,63.40
2018-12-26T10:37:04.785Z,62.00
2018-12-26T10:39:33.243Z,61.50
2018-12-26T10:42:01.692Z,60.00
2018-12-26T10:44:30.130Z,61.30
2018-12-26T10:46:58.568Z,60.70
2018-12-26T10:49:27.022Z,59.90
2018-12-26T10:51:55.454Z,58.80
2018-12-26T10:54:23.902Z,60.20
2018-12-26T10:56:52.330Z,60.80
2018-12-26T10:59:20.832Z,60.50
2018-12-26T11:01:49.262Z,59.90
2018-12-26T11:04:17.729Z,60.30
2018-12-26T11:06:46.199Z,60.40
2018-12-26T11:09:14.632Z,58.40
2018-12-26T11:11:44.622Z,57.70
2018-12-26T11:14:13.052Z,59.80
2018-12-26T11:16:41.578Z,58.60
2018-12-26T11:19:10.378Z,57.50
2018-12-26T11:21:38.892Z,59.70
2018-12-26T11:24:07.323Z,58.30
2018-12-26T11:26:35.848Z,59.30
2018-12-26T11:29:04.270Z,59.10
2018-12-26T11:31:32.726Z,58.40
2018-12-26T11:34:01.153Z,57.10
2018-12-26T11:36:29.611Z,58.50
2018-12-26T11:38:58.233Z,60.00
2018-12-26T11:41:26.736Z,60.00
2018-12-26T11:43:55.237Z,56.00
2018-12-26T11:46:23.762Z,56.20
2018-12-26T11:48:52.178Z,58.80
2018-12-26T11:51:20.600Z,56.90
2018-12-26T11:53:49.048Z,58.40
2018-12-26T11:56:17.471Z,58.30
2018-12-26T11:58:45.943Z,57.60
2018-12-26T12:01:14.512Z,57.40
2018-12-26T12:03:43.039Z,58.30
2018-12-26T12:06:11.458Z,57.40
2018-12-26T12:08:39.902Z,57.70
2018-12-26T12:11:08.338Z,56.80
2018-12-26T12:13:36.949Z,58.30
2018-12-26T12:16:05.460Z,58.70
2018-12-26T12:18:33.991Z,59.60
2018-12-26T12:21:02.487Z,58.70
2018-12-26T12:23:30.931Z,58.20
2018-12-26T12:25:59.370Z,58.90
2018-12-26T12:28:27.823Z,58.30
2018-12-26T12:30:56.301Z,59.20
2018-12-26T12:33:24.846Z,58.50
2018-12-26T12:35:53.447Z,58.90
2018-12-26T12:38:22.074Z,59.80
2018-12-26T12:40:50.522Z,58.30
2018-12-26T12:43:19.055Z,59.00
2018-12-26T12:45:47.835Z,58.40
2018-12-26T12:48:16.362Z,58.50
2018-12-26T12:50:46.346Z,59.20
2018-12-26T12:53:14.799Z,59.10
2018-12-26T12:55:43.233Z,57.80
2018-12-26T12:58:11.866Z,58.70
2018-12-26T13:00:40.314Z,56.70
2018-12-26T13:03:08.742Z,58.30
2018-12-26T13:05:37.246Z,58.30
2018-12-26T13:08:05.674Z,56.80
2018-12-26T13:10:34.190Z,57.30
2018-12-26T13:13:04.173Z,56.60
2018-12-26T13:15:32.642Z,56.80
2018-12-26T13:18:01.069Z,56.80
2018-12-26T13:20:29.523Z,56.40
2018-12-26T13:22:57.963Z,57.10
2018-12-26T13:25:26.402Z,58.10
2018-12-26T13:27:54.842Z,57.30
2018-12-26T13:30:23.467Z,57.50
2018-12-26T13:32:51.905Z,58.20
2018-12-26T13:35:20.351Z,58.20
2018-12-26T13:37:48.789Z,58.90
2018-12-26T13:40:17.242Z,59.20
2018-12-26T13:42:45.679Z,58.70
2018-12-26T13:45:14.125Z,58.50
2018-12-26T13:47:42.589Z,58.80
2018-12-26T13:50:11.089Z,58.90
2018-12-26T13:52:39.559Z,58.80
2018-12-26T13:55:08.038Z,59.00
2018-12-26T13:57:36.493Z,58.60
2018-12-26T14:00:08.167Z,58.60
2018-12-26T14:02:36.614Z,58.50
2018-12-26T14:05:06.180Z,59.60
2018-12-26T14:07:34.633Z,60.20
2018-12-26T14:10:03.347Z,60.00
2018-12-26T14:12:31.833Z,59.40
2018-12-26T14:15:01.971Z,60.20
2018-12-26T14:17:30.411Z,58.60
2018-12-26T14:19:58.874Z,60.20
2018-12-26T14:22:27.326Z,61.00
2018-12-26T14:24:55.778Z,62.10
2018-12-26T14:27:29.406Z,62.40
2018-12-26T14:29:54.521Z,62.90
2018-12-26T14:32:23.055Z,62.80
2018-12-26T14:34:51.500Z,62.80
2018-12-26T14:37:19.931Z,62.40
2018-12-26T14:39:48.379Z,63.00
2018-12-26T14:42:16.797Z,63.30
2018-12-26T14:44:45.249Z,63.60
2018-12-26T14:47:13.705Z,63.40
2018-12-26T14:49:42.148Z,64.30
2018-12-26T14:52:10.586Z,64.40
2018-12-26T14:54:39.053Z,64.40
2018-12-26T14:57:07.467Z,64.40
2018-12-26T14:59:36.227Z,64.40
2018-12-26T15:02:04.637Z,64.90
2018-12-26T15:04:33.074Z,65.70
2018-12-26T15:07:01.514Z,65.80
2018-12-26T15:09:29.983Z,66.70
2018-12-26T15:11:58.426Z,67.30
2018-12-26T15:14:26.876Z,67.70
2018-12-26T15:16:55.306Z,67.60
2018-12-26T15:19:23.791Z,67.70
2018-12-26T15:21:52.225Z,68.20
2018-12-26T15:24:20.701Z,67.90
2018-12-26T15:26:49.149Z,69.80
2018-12-26T15:29:17.603Z,71.40
2018-12-26T15:31:46.069Z,72.30
2018-12-26T15:34:14.478Z,72.20
2018-12-26T15:36:42.931Z,74.70
2018-12-26T15:39:11.367Z,75.40
2018-12-26T15:41:39.824Z,76.50
2018-12-26T15:44:08.253Z,76.70
2018-12-26T15:46:36.706Z,77.30
2018-12-26T15:49:05.139Z,77.40
2018-12-26T15:51:33.592Z,77.80
2018-12-26T15:54:02.047Z,79.30
2018-12-26T15:56:30.461Z,79.20
2018-12-26T15:58:58.951Z,79.00
2018-12-26T16:01:27.410Z,79.70
2018-12-26T16:03:55.855Z,79.00
2018-12-26T16:06:24.321Z,79.50
2018-12-26T16:08:52.766Z,80.20
2018-12-26T16:11:21.392Z,80.40
2018-12-26T16:13:49.831Z,81.00
2018-12-26T16:16:18.332Z,81.30
2018-12-26T16:18:46.806Z,81.90
2018-12-26T16:21:15.226Z,81.90
2018-12-26T16:23:43.704Z,81.50
2018-12-26T16:26:12.146Z,81.10
2018-12-26T16:28:40.587Z,81.00
2018-12-26T16:31:09.014Z,81.70
2018-12-26T16:33:37.464Z,81.80
2018-12-26T16:36:05.895Z,81.80
2018-12-26T16:38:34.370Z,81.30
2018-12-26T16:41:02.798Z,80.80
2018-12-26T16:43:31.251Z,80.90
2018-12-26T16:45:59.691Z,80.30
2018-12-26T16:48:28.167Z,80.90
2018-12-26T16:50:56.613Z,82.30
2018-12-26T16:53:25.110Z,81.70
2018-12-26T16:55:53.576Z,82.80
2018-12-26T16:58:22.098Z,83.00
2018-12-26T17:00:55.018Z,83.10
2018-12-26T17:03:20.778Z,83.30
2018-12-26T17:05:49.243Z,84.10
2018-12-26T17:08:17.694Z,84.10
2018-12-26T17:10:46.154Z,83.80
2018-12-26T17:13:14.591Z,84.20
2018-12-26T17:15:43.053Z,84.10
2018-12-26T17:18:11.552Z,83.10
2018-12-26T17:20:39.998Z,82.40
2018-12-26T17:23:08.422Z,83.40
2018-12-26T17:25:36.883Z,84.00
2018-12-26T17:28:05.373Z,84.00
2018-12-26T17:30:33.828Z,84.00
2018-12-26T17:33:02.261Z,83.10
2018-12-26T17:35:30.709Z,84.10
2018-12-26T17:37:59.139Z,84.70
2018-12-26T17:40:27.566Z,84.90
2018-12-26T17:42:56.044Z,84.50
2018-12-26T17:45:24.575Z,84.60
2018-12-26T17:47:53.083Z,84.80
2018-12-26T17:50:42.925Z,84.60
2018-12-26T17:53:14.916Z,84.80
2018-12-26T17:56:01.390Z,85.10
2018-12-26T17:58:32.998Z,84.70
2018-12-26T18:01:12.680Z,83.90
2018-12-26T18:03:34.683Z,84.00
2018-12-26T18:06:03.138Z,84.20
2018-12-26T18:08:31.564Z,83.90
2018-12-26T18:11:00.012Z,82.60
2018-12-26T18:13:28.462Z,83.50
2018-12-26T18:15:58.457Z,83.50
2018-12-26T18:18:26.916Z,83.60
2018-12-26T18:20:55.359Z,83.50
2018-12-26T18:23:23.802Z,84.40
2018-12-26T18:25:52.299Z,84.20
2018-12-26T18:28:20.838Z,84.70
2018-12-26T18:30:49.277Z,85.10
2018-12-26T18:33:17.737Z,85.40
2018-12-26T18:35:46.181Z,85.50
2018-12-26T18:38:14.706Z,85.30
2018-12-26T18:40:43.135Z,85.50
2018-12-26T18:43:11.594Z,85.00
2018-12-26T18:45:40.016Z,85.40
2018-12-26T18:48:08.581Z,85.50
2018-12-26T18:50:37.060Z,85.40
2018-12-26T18:53:05.594Z,85.30
2018-12-26T18:55:34.111Z,84.80
2018-12-26T18:58:02.586Z,85.40
2018-12-26T19:00:31.014Z,85.60
2018-12-26T19:02:59.442Z,85.40
2018-12-26T19:05:27.927Z,85.70
2018-12-26T19:07:56.376Z,85.90
2018-12-26T19:10:24.858Z,86.10
2018-12-26T19:12:53.270Z,86.40
2018-12-26T19:15:21.731Z,86.10
2018-12-26T19:17:50.156Z,85.70
2018-12-26T19:20:18.606Z,86.10
2018-12-26T19:22:47.063Z,86.00
2018-12-26T19:25:15.502Z,85.60
2018-12-26T19:27:43.929Z,85.90
2018-12-26T19:30:12.458Z,85.60
2018-12-26T19:32:40.929Z,85.50
2018-12-26T19:35:12.852Z,85.40
2018-12-26T19:37:41.281Z,85.60
2018-12-26T19:40:09.780Z,85.30
2018-12-26T19:42:38.271Z,85.20
2018-12-26T19:45:07.926Z,85.20
2018-12-26T19:47:36.397Z,85.20
2018-12-26T19:50:07.563Z,85.10
2018-12-26T19:52:36.029Z,85.00
2018-12-26T19:55:06.492Z,84.80
2018-12-26T19:57:34.943Z,84.60
2018-12-26T20:00:03.452Z,84.70
2018-12-26T20:02:31.902Z,84.50
2018-12-26T20:05:00.334Z,84.70
2018-12-26T20:07:28.823Z,84.70
2018-12-26T20:09:57.319Z,84.90
2018-12-26T20:12:25.749Z,84.60
2018-12-26T20:14:54.215Z,84.70
2018-12-26T20:17:22.686Z,84.90
2018-12-26T20:19:51.130Z,85.20
2018-12-26T20:22:19.596Z,85.20
2018-12-26T20:24:48.015Z,85.30
2018-12-26T20:27:16.459Z,85.20
2018-12-26T20:29:44.914Z,85.50
2018-12-26T20:32:13.346Z,85.50
2018-12-26T20:34:41.802Z,85.50
2018-12-26T20:37:10.331Z,85.50
2018-12-26T20:39:38.792Z,85.80
2018-12-26T20:42:07.207Z,85.70
2018-12-26T20:44:35.745Z,85.70
2018-12-26T20:47:04.253Z,84.90
2018-12-26T20:49:32.730Z,85.40
2018-12-26T20:52:01.147Z,85.90
2018-12-26T20:54:29.602Z,85.80
2018-12-26T20:56:58.035Z,86.50
2018-12-26T20:59:26.477Z,86.60
2018-12-26T21:01:54.935Z,86.60
2018-12-26T21:04:23.428Z,86.80
2018-12-26T21:06:51.923Z,86.50
2018-12-26T21:09:20.374Z,86.60
2018-12-26T21:11:49.025Z,86.20
2018-12-26T21:14:17.458Z,86.60
2018-12-26T21:16:54.731Z,86.40
2018-12-26T21:19:17.607Z,86.50
2018-12-26T21:21:46.070Z,86.40
2018-12-26T21:24:14.494Z,86.20
2018-12-26T21:26:42.968Z,86.10
2018-12-26T21:29:11.395Z,86.20
2018-12-26T21:31:39.925Z,86.00
2018-12-26T21:34:08.526Z,85.90
2018-12-26T21:36:37.059Z,85.80
2018-12-26T21:39:07.055Z,85.40
2018-12-26T21:41:35.500Z,85.60
2018-12-26T21:44:04.023Z,85.40
2018-12-26T21:46:32.485Z,85.40
2018-12-26T21:49:00.916Z,85.30
2018-12-26T21:51:29.386Z,84.80
2018-12-26T21:53:57.795Z,84.50
2018-12-26T21:56:26.220Z,83.70
2018-12-26T21:58:54.684Z,84.40
2018-12-26T22:01:23.227Z,85.00
2018-12-26T22:03:51.686Z,85.30
2018-12-26T22:06:20.143Z,85.70
2018-12-26T22:08:48.599Z,85.70
2018-12-26T22:11:17.034Z,85.40
2018-12-26T22:13:45.487Z,85.20
2018-12-26T22:16:13.987Z,85.10
2018-12-26T22:18:42.479Z,84.80
2018-12-26T22:21:10.904Z,84.60
2018-12-26T22:23:39.364Z,84.70
2018-12-26T22:26:07.805Z,84.70
2018-12-26T22:28:36.267Z,84.90
2018-12-26T22:31:04.684Z,84.90
2018-12-26T22:33:33.160Z,84.80
2018-12-26T22:36:01.600Z,84.30
2018-12-26T22:38:30.025Z,84.40
2018-12-26T22:40:58.501Z,84.80
2018-12-26T22:43:26.931Z,84.70
2018-12-26T22:45:55.415Z,84.50
2018-12-26T22:48:23.831Z,84.10
2018-12-26T22:50:52.283Z,83.90
2018-12-26T22:53:20.712Z,83.70
2018-12-26T22:55:49.163Z,83.80
2018-12-26T22:58:17.594Z,83.80
2018-12-26T23:00:46.270Z,83.70
2018-12-26T23:03:14.783Z,83.40
2018-12-26T23:05:43.227Z,83.40
2018-12-26T23:08:11.728Z,83.50
2018-12-26T23:10:41.743Z,83.20
2018-12-26T23:13:10.179Z,83.10
2018-12-26T23:15:38.608Z,82.90
2018-12-26T23:18:07.067Z,82.90
2018-12-26T23:20:35.557Z,82.40
2018-12-26T23:23:04.084Z,82.00
2018-12-26T23:25:32.549Z,81.80
2018-12-26T23:28:01.011Z,81.60
2018-12-26T23:30:29.427Z,81.50
2018-12-26T23:32:57.882Z,81.60
2018-12-26T23:35:26.305Z,81.80
2018-12-26T23:37:54.746Z,82.10
2018-12-26T23:40:23.185Z,82.50
2018-12-26T23:42:51.629Z,82.50
2018-12-26T23:45:20.078Z,82.10
2018-12-26T23:47:48.533Z,82.60
2018-12-26T23:50:16.964Z,82.90
2018-12-26T23:52:45.428Z,82.00
2018-12-26T23:55:13.963Z,82.60
2018-12-26T23:57:42.406Z,82.00
